sensor_id;sensor_type;location;lat;lon;timestamp;temperature;humidity
15455;DHT22;21057;51.024;7.540;2023-08-24T00:00:15;18.70;99.90
15455;DHT22;21057;51.024;7.540;2023-08-24T00:02:43;18.70;99.90
15455;DHT22;21057;51.024;7.540;2023-08-24T00:05:10;18.70;99.90
15455;DHT22;21057;51.024;7.540;2023-08-24T00:07:37;18.70;99.90
15455;DHT22;21057;51.024;7.540;2023-08-24T00:10:04;18.70;99.90
15455;DHT22;21057;51.024;7.540;2023-08-24T00:12:33;18.60;99.90
15455;DHT22;21057;51.024;7.540;2023-08-24T00:15:01;18.70;99.90
15455;DHT22;21057;51.024;7.540;2023-08-24T00:17:28;18.70;99.90
15455;DHT22;21057;51.024;7.540;2023-08-24T00:19:55;18.70;99.90
15455;DHT22;21057;51.024;7.540;2023-08-24T00:22:22;18.70;99.90
15455;DHT22;21057;51.024;7.540;2023-08-24T00:24:48;18.80;99.90
15455;DHT22;21057;51.024;7.540;2023-08-24T00:27:15;18.60;99.90
15455;DHT22;21057;51.024;7.540;2023-08-24T00:29:43;18.50;99.90
15455;DHT22;21057;51.024;7.540;2023-08-24T00:32:10;18.50;99.90
15455;DHT22;21057;51.024;7.540;2023-08-24T00:34:37;18.60;99.90
15455;DHT22;21057;51.024;7.540;2023-08-24T00:37:04;18.70;99.90
15455;DHT22;21057;51.024;7.540;2023-08-24T00:39:31;18.60;99.90
15455;DHT22;21057;51.024;7.540;2023-08-24T00:41:58;18.50;99.90
15455;DHT22;21057;51.024;7.540;2023-08-24T00:44:25;18.40;99.90
15455;DHT22;21057;51.024;7.540;2023-08-24T00:46:53;18.40;99.90
15455;DHT22;21057;51.024;7.540;2023-08-24T00:49:21;18.40;99.90
15455;DHT22;21057;51.024;7.540;2023-08-24T00:51:48;18.40;99.90
15455;DHT22;21057;51.024;7.540;2023-08-24T00:54:15;18.30;99.90
15455;DHT22;21057;51.024;7.540;2023-08-24T00:56:43;18.20;99.90
15455;DHT22;21057;51.024;7.540;2023-08-24T00:59:10;18.30;99.90
15455;DHT22;21057;51.024;7.540;2023-08-24T01:01:39;18.30;99.90
15455;DHT22;21057;51.024;7.540;2023-08-24T01:04:08;18.30;99.90
15455;DHT22;21057;51.024;7.540;2023-08-24T01:06:36;18.40;99.90
15455;DHT22;21057;51.024;7.540;2023-08-24T01:09:03;18.40;99.90
15455;DHT22;21057;51.024;7.540;2023-08-24T01:11:38;18.40;99.90
15455;DHT22;21057;51.024;7.540;2023-08-24T01:14:18;18.30;99.90
15455;DHT22;21057;51.024;7.540;2023-08-24T01:16:48;18.20;99.90
15455;DHT22;21057;51.024;7.540;2023-08-24T01:19:34;18.20;99.90
15455;DHT22;21057;51.024;7.540;2023-08-24T01:22:07;18.20;99.90
15455;DHT22;21057;51.024;7.540;2023-08-24T01:24:39;18.20;99.90
15455;DHT22;21057;51.024;7.540;2023-08-24T01:27:10;18.30;99.90
15455;DHT22;21057;51.024;7.540;2023-08-24T01:29:38;18.20;99.90
15455;DHT22;21057;51.024;7.540;2023-08-24T01:32:10;18.20;99.90
15455;DHT22;21057;51.024;7.540;2023-08-24T01:34:37;18.10;99.90
15455;DHT22;21057;51.024;7.540;2023-08-24T01:37:05;18.20;99.90
15455;DHT22;21057;51.024;7.540;2023-08-24T01:39:37;18.20;99.90
15455;DHT22;21057;51.024;7.540;2023-08-24T01:42:11;18.10;99.90
15455;DHT22;21057;51.024;7.540;2023-08-24T01:44:42;18.20;99.90
15455;DHT22;21057;51.024;7.540;2023-08-24T01:47:13;18.20;99.90
15455;DHT22;21057;51.024;7.540;2023-08-24T01:49:40;18.20;99.90
15455;DHT22;21057;51.024;7.540;2023-08-24T01:52:08;18.10;99.90
15455;DHT22;21057;51.024;7.540;2023-08-24T01:54:35;17.90;99.90
15455;DHT22;21057;51.024;7.540;2023-08-24T01:57:04;17.90;99.90
15455;DHT22;21057;51.024;7.540;2023-08-24T01:59:33;18.00;99.90
15455;DHT22;21057;51.024;7.540;2023-08-24T02:01:59;17.90;99.90
15455;DHT22;21057;51.024;7.540;2023-08-24T02:04:26;17.80;99.90
15455;DHT22;21057;51.024;7.540;2023-08-24T02:06:53;17.90;99.90
15455;DHT22;21057;51.024;7.540;2023-08-24T02:09:20;18.10;99.90
15455;DHT22;21057;51.024;7.540;2023-08-24T02:11:47;18.10;99.90
15455;DHT22;21057;51.024;7.540;2023-08-24T02:14:14;18.00;99.90
15455;DHT22;21057;51.024;7.540;2023-08-24T02:16:42;18.00;99.90
15455;DHT22;21057;51.024;7.540;2023-08-24T02:19:08;17.90;99.90
15455;DHT22;21057;51.024;7.540;2023-08-24T02:21:36;17.90;99.90
15455;DHT22;21057;51.024;7.540;2023-08-24T02:24:04;18.00;99.90
15455;DHT22;21057;51.024;7.540;2023-08-24T02:26:31;18.00;99.90
15455;DHT22;21057;51.024;7.540;2023-08-24T02:28:57;18.10;99.90
15455;DHT22;21057;51.024;7.540;2023-08-24T02:31:24;18.10;99.90
15455;DHT22;21057;51.024;7.540;2023-08-24T02:33:53;18.00;99.90
15455;DHT22;21057;51.024;7.540;2023-08-24T02:36:19;17.90;99.90
15455;DHT22;21057;51.024;7.540;2023-08-24T02:38:47;17.90;99.90
15455;DHT22;21057;51.024;7.540;2023-08-24T02:41:13;17.90;99.90
15455;DHT22;21057;51.024;7.540;2023-08-24T02:43:40;17.90;99.90
15455;DHT22;21057;51.024;7.540;2023-08-24T02:46:08;17.80;99.90
15455;DHT22;21057;51.024;7.540;2023-08-24T02:48:36;17.80;99.90
15455;DHT22;21057;51.024;7.540;2023-08-24T02:51:05;17.80;99.90
15455;DHT22;21057;51.024;7.540;2023-08-24T02:53:32;17.80;99.90
15455;DHT22;21057;51.024;7.540;2023-08-24T02:55:59;17.70;99.90
15455;DHT22;21057;51.024;7.540;2023-08-24T02:58:26;17.70;99.90
15455;DHT22;21057;51.024;7.540;2023-08-24T03:00:53;17.80;99.90
15455;DHT22;21057;51.024;7.540;2023-08-24T03:03:20;17.90;99.90
15455;DHT22;21057;51.024;7.540;2023-08-24T03:05:55;18.00;99.90
15455;DHT22;21057;51.024;7.540;2023-08-24T03:08:23;18.00;99.90
15455;DHT22;21057;51.024;7.540;2023-08-24T03:10:50;18.10;99.90
15455;DHT22;21057;51.024;7.540;2023-08-24T03:13:17;18.10;99.90
15455;DHT22;21057;51.024;7.540;2023-08-24T03:15:44;18.10;99.90
15455;DHT22;21057;51.024;7.540;2023-08-24T03:18:11;18.10;99.90
15455;DHT22;21057;51.024;7.540;2023-08-24T03:20:39;18.20;99.90
15455;DHT22;21057;51.024;7.540;2023-08-24T03:23:06;18.20;99.90
15455;DHT22;21057;51.024;7.540;2023-08-24T03:25:38;18.20;99.90
15455;DHT22;21057;51.024;7.540;2023-08-24T03:28:05;18.30;99.90
15455;DHT22;21057;51.024;7.540;2023-08-24T03:30:33;18.30;99.90
15455;DHT22;21057;51.024;7.540;2023-08-24T03:33:00;18.30;99.90
15455;DHT22;21057;51.024;7.540;2023-08-24T03:35:28;18.30;99.90
15455;DHT22;21057;51.024;7.540;2023-08-24T03:37:55;18.40;99.90
15455;DHT22;21057;51.024;7.540;2023-08-24T03:40:22;18.50;99.90
15455;DHT22;21057;51.024;7.540;2023-08-24T03:42:50;18.50;99.90
15455;DHT22;21057;51.024;7.540;2023-08-24T03:45:18;18.50;99.90
15455;DHT22;21057;51.024;7.540;2023-08-24T03:47:45;18.50;99.90
15455;DHT22;21057;51.024;7.540;2023-08-24T03:50:12;18.60;99.90
15455;DHT22;21057;51.024;7.540;2023-08-24T03:52:39;18.50;99.90
15455;DHT22;21057;51.024;7.540;2023-08-24T03:55:06;18.50;99.90
15455;DHT22;21057;51.024;7.540;2023-08-24T03:57:33;18.50;99.90
15455;DHT22;21057;51.024;7.540;2023-08-24T04:00:02;18.40;99.90
15455;DHT22;21057;51.024;7.540;2023-08-24T04:02:32;18.40;99.90
15455;DHT22;21057;51.024;7.540;2023-08-24T04:04:59;18.30;99.90
15455;DHT22;21057;51.024;7.540;2023-08-24T04:07:25;18.30;99.90
15455;DHT22;21057;51.024;7.540;2023-08-24T04:09:52;18.30;99.90
15455;DHT22;21057;51.024;7.540;2023-08-24T04:12:19;18.30;99.90
15455;DHT22;21057;51.024;7.540;2023-08-24T04:14:46;18.30;99.90
15455;DHT22;21057;51.024;7.540;2023-08-24T04:17:14;18.40;99.90
15455;DHT22;21057;51.024;7.540;2023-08-24T04:19:41;18.60;99.90
15455;DHT22;21057;51.024;7.540;2023-08-24T04:22:07;18.60;99.90
15455;DHT22;21057;51.024;7.540;2023-08-24T04:24:34;18.80;99.90
15455;DHT22;21057;51.024;7.540;2023-08-24T04:27:01;18.90;99.90
15455;DHT22;21057;51.024;7.540;2023-08-24T04:29:28;18.90;99.90
15455;DHT22;21057;51.024;7.540;2023-08-24T04:31:55;18.90;99.90
15455;DHT22;21057;51.024;7.540;2023-08-24T04:34:23;19.00;99.90
15455;DHT22;21057;51.024;7.540;2023-08-24T04:36:49;19.00;99.90
15455;DHT22;21057;51.024;7.540;2023-08-24T04:39:16;19.00;99.90
15455;DHT22;21057;51.024;7.540;2023-08-24T04:41:44;19.00;99.90
15455;DHT22;21057;51.024;7.540;2023-08-24T04:44:11;19.00;99.90
15455;DHT22;21057;51.024;7.540;2023-08-24T04:46:38;19.00;99.90
15455;DHT22;21057;51.024;7.540;2023-08-24T04:49:04;19.00;99.90
15455;DHT22;21057;51.024;7.540;2023-08-24T04:51:33;19.00;99.90
15455;DHT22;21057;51.024;7.540;2023-08-24T04:54:00;19.00;99.90
15455;DHT22;21057;51.024;7.540;2023-08-24T04:56:28;19.00;99.90
15455;DHT22;21057;51.024;7.540;2023-08-24T04:58:54;19.00;99.90
15455;DHT22;21057;51.024;7.540;2023-08-24T05:01:22;19.00;99.90
15455;DHT22;21057;51.024;7.540;2023-08-24T05:03:50;19.00;99.90
15455;DHT22;21057;51.024;7.540;2023-08-24T05:06:17;19.00;99.90
15455;DHT22;21057;51.024;7.540;2023-08-24T05:08:46;19.00;99.90
15455;DHT22;21057;51.024;7.540;2023-08-24T05:11:13;19.10;99.90
15455;DHT22;21057;51.024;7.540;2023-08-24T05:13:40;19.20;99.90
15455;DHT22;21057;51.024;7.540;2023-08-24T05:16:07;19.10;99.90
15455;DHT22;21057;51.024;7.540;2023-08-24T05:18:34;19.00;99.90
15455;DHT22;21057;51.024;7.540;2023-08-24T05:21:01;19.10;99.90
15455;DHT22;21057;51.024;7.540;2023-08-24T05:23:28;19.20;99.90
15455;DHT22;21057;51.024;7.540;2023-08-24T05:25:58;19.10;99.90
15455;DHT22;21057;51.024;7.540;2023-08-24T05:28:24;19.10;99.90
15455;DHT22;21057;51.024;7.540;2023-08-24T05:30:52;19.10;99.90
15455;DHT22;21057;51.024;7.540;2023-08-24T05:33:19;19.10;99.90
15455;DHT22;21057;51.024;7.540;2023-08-24T05:35:47;19.30;99.90
15455;DHT22;21057;51.024;7.540;2023-08-24T05:38:14;19.20;99.90
15455;DHT22;21057;51.024;7.540;2023-08-24T05:40:42;19.20;99.90
15455;DHT22;21057;51.024;7.540;2023-08-24T05:43:10;19.10;99.90
15455;DHT22;21057;51.024;7.540;2023-08-24T05:45:37;19.20;99.90
15455;DHT22;21057;51.024;7.540;2023-08-24T05:48:05;19.20;99.90
15455;DHT22;21057;51.024;7.540;2023-08-24T05:50:32;19.20;99.90
15455;DHT22;21057;51.024;7.540;2023-08-24T05:52:59;19.20;99.90
15455;DHT22;21057;51.024;7.540;2023-08-24T05:55:27;19.20;99.90
15455;DHT22;21057;51.024;7.540;2023-08-24T05:57:54;19.30;99.90
15455;DHT22;21057;51.024;7.540;2023-08-24T06:00:23;19.30;99.90
15455;DHT22;21057;51.024;7.540;2023-08-24T06:02:50;19.40;99.90
15455;DHT22;21057;51.024;7.540;2023-08-24T06:05:16;19.40;99.90
15455;DHT22;21057;51.024;7.540;2023-08-24T06:07:44;19.40;99.90
15455;DHT22;21057;51.024;7.540;2023-08-24T06:10:11;19.40;99.90
15455;DHT22;21057;51.024;7.540;2023-08-24T06:12:38;19.40;99.90
15455;DHT22;21057;51.024;7.540;2023-08-24T06:15:06;19.40;99.90
15455;DHT22;21057;51.024;7.540;2023-08-24T06:17:36;19.50;99.90
15455;DHT22;21057;51.024;7.540;2023-08-24T06:20:03;19.50;99.90
15455;DHT22;21057;51.024;7.540;2023-08-24T06:22:30;19.60;99.90
15455;DHT22;21057;51.024;7.540;2023-08-24T06:24:57;19.60;99.90
15455;DHT22;21057;51.024;7.540;2023-08-24T06:27:25;19.70;99.90
15455;DHT22;21057;51.024;7.540;2023-08-24T06:29:52;19.80;99.90
15455;DHT22;21057;51.024;7.540;2023-08-24T06:32:19;19.80;99.90
15455;DHT22;21057;51.024;7.540;2023-08-24T06:34:47;19.80;99.90
15455;DHT22;21057;51.024;7.540;2023-08-24T06:37:14;19.90;99.90
15455;DHT22;21057;51.024;7.540;2023-08-24T06:39:40;19.90;99.90
15455;DHT22;21057;51.024;7.540;2023-08-24T06:42:08;20.00;99.90
15455;DHT22;21057;51.024;7.540;2023-08-24T06:44:34;20.00;99.90
15455;DHT22;21057;51.024;7.540;2023-08-24T06:47:01;20.20;99.90
15455;DHT22;21057;51.024;7.540;2023-08-24T06:49:28;20.20;99.90
15455;DHT22;21057;51.024;7.540;2023-08-24T06:51:56;20.50;99.90
15455;DHT22;21057;51.024;7.540;2023-08-24T06:54:23;20.50;99.90
15455;DHT22;21057;51.024;7.540;2023-08-24T06:56:50;20.60;99.90
15455;DHT22;21057;51.024;7.540;2023-08-24T06:59:17;20.60;99.90
15455;DHT22;21057;51.024;7.540;2023-08-24T07:01:44;20.60;99.90
15455;DHT22;21057;51.024;7.540;2023-08-24T07:04:12;20.60;99.90
15455;DHT22;21057;51.024;7.540;2023-08-24T07:06:39;20.80;99.90
15455;DHT22;21057;51.024;7.540;2023-08-24T07:09:09;20.90;99.90
15455;DHT22;21057;51.024;7.540;2023-08-24T07:11:36;20.90;99.90
15455;DHT22;21057;51.024;7.540;2023-08-24T07:14:03;21.00;99.90
15455;DHT22;21057;51.024;7.540;2023-08-24T07:16:30;21.30;99.90
15455;DHT22;21057;51.024;7.540;2023-08-24T07:18:57;21.30;99.90
15455;DHT22;21057;51.024;7.540;2023-08-24T07:21:24;21.30;99.90
15455;DHT22;21057;51.024;7.540;2023-08-24T07:23:51;21.30;99.90
15455;DHT22;21057;51.024;7.540;2023-08-24T07:26:19;21.40;99.90
15455;DHT22;21057;51.024;7.540;2023-08-24T07:28:46;21.40;99.90
15455;DHT22;21057;51.024;7.540;2023-08-24T07:31:13;21.40;99.90
15455;DHT22;21057;51.024;7.540;2023-08-24T07:33:40;21.60;99.90
15455;DHT22;21057;51.024;7.540;2023-08-24T07:36:09;21.70;99.90
15455;DHT22;21057;51.024;7.540;2023-08-24T07:38:36;21.70;99.90
15455;DHT22;21057;51.024;7.540;2023-08-24T07:41:03;21.90;99.90
15455;DHT22;21057;51.024;7.540;2023-08-24T07:43:31;21.90;99.90
15455;DHT22;21057;51.024;7.540;2023-08-24T07:45:58;22.20;99.90
15455;DHT22;21057;51.024;7.540;2023-08-24T07:48:25;22.20;99.90
15455;DHT22;21057;51.024;7.540;2023-08-24T07:50:51;22.30;99.90
15455;DHT22;21057;51.024;7.540;2023-08-24T07:53:18;22.40;99.90
15455;DHT22;21057;51.024;7.540;2023-08-24T07:55:45;22.50;99.90
15455;DHT22;21057;51.024;7.540;2023-08-24T07:58:12;22.60;99.90
15455;DHT22;21057;51.024;7.540;2023-08-24T08:00:40;22.70;99.90
15455;DHT22;21057;51.024;7.540;2023-08-24T08:03:07;23.00;99.90
15455;DHT22;21057;51.024;7.540;2023-08-24T08:05:34;23.10;99.90
15455;DHT22;21057;51.024;7.540;2023-08-24T08:08:01;23.10;99.90
15455;DHT22;21057;51.024;7.540;2023-08-24T08:10:28;23.10;99.90
15455;DHT22;21057;51.024;7.540;2023-08-24T08:12:54;23.20;99.90
15455;DHT22;21057;51.024;7.540;2023-08-24T08:15:21;23.50;99.90
15455;DHT22;21057;51.024;7.540;2023-08-24T08:17:50;23.60;99.90
15455;DHT22;21057;51.024;7.540;2023-08-24T08:20:17;23.70;99.90
15455;DHT22;21057;51.024;7.540;2023-08-24T08:22:44;23.80;99.90
15455;DHT22;21057;51.024;7.540;2023-08-24T08:25:11;24.00;99.90
15455;DHT22;21057;51.024;7.540;2023-08-24T08:27:38;24.20;99.90
15455;DHT22;21057;51.024;7.540;2023-08-24T08:30:06;24.30;99.90
15455;DHT22;21057;51.024;7.540;2023-08-24T08:32:33;24.30;99.90
15455;DHT22;21057;51.024;7.540;2023-08-24T08:35:02;24.50;99.90
15455;DHT22;21057;51.024;7.540;2023-08-24T08:37:30;24.70;99.90
15455;DHT22;21057;51.024;7.540;2023-08-24T08:39:57;24.80;99.90
15455;DHT22;21057;51.024;7.540;2023-08-24T08:42:24;24.90;99.90
15455;DHT22;21057;51.024;7.540;2023-08-24T08:44:51;25.10;99.90
15455;DHT22;21057;51.024;7.540;2023-08-24T08:47:21;25.10;99.90
15455;DHT22;21057;51.024;7.540;2023-08-24T08:49:48;25.20;99.90
15455;DHT22;21057;51.024;7.540;2023-08-24T08:52:16;25.40;99.90
15455;DHT22;21057;51.024;7.540;2023-08-24T08:54:43;25.40;99.90
15455;DHT22;21057;51.024;7.540;2023-08-24T08:57:10;25.40;99.90
15455;DHT22;21057;51.024;7.540;2023-08-24T08:59:37;25.50;99.90
15455;DHT22;21057;51.024;7.540;2023-08-24T09:02:05;25.80;99.90
15455;DHT22;21057;51.024;7.540;2023-08-24T09:04:33;26.00;99.90
15455;DHT22;21057;51.024;7.540;2023-08-24T09:07:00;26.10;99.90
15455;DHT22;21057;51.024;7.540;2023-08-24T09:09:32;26.10;99.90
15455;DHT22;21057;51.024;7.540;2023-08-24T09:12:00;26.20;99.90
15455;DHT22;21057;51.024;7.540;2023-08-24T09:14:27;26.20;99.90
15455;DHT22;21057;51.024;7.540;2023-08-24T09:16:54;26.40;99.90
15455;DHT22;21057;51.024;7.540;2023-08-24T09:19:27;26.70;99.90
15455;DHT22;21057;51.024;7.540;2023-08-24T09:21:56;27.00;99.90
15455;DHT22;21057;51.024;7.540;2023-08-24T09:24:30;27.20;99.90
15455;DHT22;21057;51.024;7.540;2023-08-24T09:26:58;27.30;99.90
15455;DHT22;21057;51.024;7.540;2023-08-24T09:29:25;27.50;99.90
15455;DHT22;21057;51.024;7.540;2023-08-24T09:31:52;27.70;99.90
15455;DHT22;21057;51.024;7.540;2023-08-24T09:34:19;27.90;99.90
15455;DHT22;21057;51.024;7.540;2023-08-24T09:36:46;28.10;99.90
15455;DHT22;21057;51.024;7.540;2023-08-24T09:39:16;28.30;99.90
15455;DHT22;21057;51.024;7.540;2023-08-24T09:41:48;28.60;99.90
15455;DHT22;21057;51.024;7.540;2023-08-24T09:44:16;29.00;99.90
15455;DHT22;21057;51.024;7.540;2023-08-24T09:46:43;29.30;98.90
15455;DHT22;21057;51.024;7.540;2023-08-24T09:49:12;29.50;99.50
15455;DHT22;21057;51.024;7.540;2023-08-24T09:51:40;29.80;99.90
15455;DHT22;21057;51.024;7.540;2023-08-24T09:54:08;30.00;99.90
15455;DHT22;21057;51.024;7.540;2023-08-24T09:56:37;30.20;97.90
15455;DHT22;21057;51.024;7.540;2023-08-24T09:59:11;30.30;97.80
15455;DHT22;21057;51.024;7.540;2023-08-24T10:01:42;30.30;97.40
15455;DHT22;21057;51.024;7.540;2023-08-24T10:04:10;30.30;97.60
15455;DHT22;21057;51.024;7.540;2023-08-24T10:06:39;30.40;98.00
15455;DHT22;21057;51.024;7.540;2023-08-24T10:09:08;30.30;97.40
15455;DHT22;21057;51.024;7.540;2023-08-24T10:11:43;30.30;96.10
15455;DHT22;21057;51.024;7.540;2023-08-24T10:14:18;30.60;99.30
15455;DHT22;21057;51.024;7.540;2023-08-24T10:16:46;30.70;95.40
15455;DHT22;21057;51.024;7.540;2023-08-24T10:19:17;30.60;95.40
15455;DHT22;21057;51.024;7.540;2023-08-24T10:21:47;30.70;98.10
15455;DHT22;21057;51.024;7.540;2023-08-24T10:24:15;31.20;96.90
15455;DHT22;21057;51.024;7.540;2023-08-24T10:26:42;31.20;96.60
15455;DHT22;21057;51.024;7.540;2023-08-24T10:29:10;31.30;95.80
15455;DHT22;21057;51.024;7.540;2023-08-24T10:31:40;31.40;95.60
15455;DHT22;21057;51.024;7.540;2023-08-24T10:47:51;30.60;95.90
15455;DHT22;21057;51.024;7.540;2023-08-24T10:50:19;30.60;95.40
15455;DHT22;21057;51.024;7.540;2023-08-24T10:52:46;30.60;96.60
15455;DHT22;21057;51.024;7.540;2023-08-24T10:55:23;30.70;96.50
15455;DHT22;21057;51.024;7.540;2023-08-24T10:57:57;30.70;95.90
15455;DHT22;21057;51.024;7.540;2023-08-24T11:00:26;30.60;94.90
15455;DHT22;21057;51.024;7.540;2023-08-24T11:02:55;30.40;95.90
15455;DHT22;21057;51.024;7.540;2023-08-24T11:05:23;30.30;96.60
15455;DHT22;21057;51.024;7.540;2023-08-24T11:07:54;30.40;96.90
15455;DHT22;21057;51.024;7.540;2023-08-24T11:10:23;30.30;94.10
15455;DHT22;21057;51.024;7.540;2023-08-24T11:13:12;30.40;95.60
15455;DHT22;21057;51.024;7.540;2023-08-24T11:15:41;30.30;94.50
15455;DHT22;21057;51.024;7.540;2023-08-24T11:18:15;30.30;96.90
15455;DHT22;21057;51.024;7.540;2023-08-24T11:20:47;30.10;96.40
15455;DHT22;21057;51.024;7.540;2023-08-24T11:23:15;30.20;96.80
15455;DHT22;21057;51.024;7.540;2023-08-24T11:25:42;30.50;94.30
15455;DHT22;21057;51.024;7.540;2023-08-24T11:28:09;30.70;94.60
15455;DHT22;21057;51.024;7.540;2023-08-24T11:30:36;31.00;93.90
15455;DHT22;21057;51.024;7.540;2023-08-24T11:33:04;31.10;94.40
15455;DHT22;21057;51.024;7.540;2023-08-24T11:35:36;31.30;94.90
15455;DHT22;21057;51.024;7.540;2023-08-24T11:38:03;31.30;94.50
15455;DHT22;21057;51.024;7.540;2023-08-24T11:40:30;31.50;94.30
15455;DHT22;21057;51.024;7.540;2023-08-24T11:42:57;31.60;93.70
15455;DHT22;21057;51.024;7.540;2023-08-24T11:45:24;31.40;94.60
15455;DHT22;21057;51.024;7.540;2023-08-24T11:47:58;31.60;94.40
15455;DHT22;21057;51.024;7.540;2023-08-24T11:50:25;31.20;95.10
15455;DHT22;21057;51.024;7.540;2023-08-24T11:52:54;30.80;96.50
15455;DHT22;21057;51.024;7.540;2023-08-24T11:55:21;30.70;95.90
15455;DHT22;21057;51.024;7.540;2023-08-24T11:57:48;30.60;94.40
15455;DHT22;21057;51.024;7.540;2023-08-24T12:00:15;30.30;95.90
15455;DHT22;21057;51.024;7.540;2023-08-24T12:02:43;30.00;94.70
15455;DHT22;21057;51.024;7.540;2023-08-24T12:05:20;30.00;94.00
15455;DHT22;21057;51.024;7.540;2023-08-24T12:07:47;29.70;94.60
15455;DHT22;21057;51.024;7.540;2023-08-24T12:10:16;29.70;93.60
15455;DHT22;21057;51.024;7.540;2023-08-24T12:12:43;29.70;94.70
15455;DHT22;21057;51.024;7.540;2023-08-24T12:15:15;29.70;94.00
15455;DHT22;21057;51.024;7.540;2023-08-24T12:17:44;29.70;94.10
15455;DHT22;21057;51.024;7.540;2023-08-24T12:20:18;29.50;95.60
15455;DHT22;21057;51.024;7.540;2023-08-24T12:22:53;29.50;95.60
15455;DHT22;21057;51.024;7.540;2023-08-24T12:25:25;29.60;96.30
15455;DHT22;21057;51.024;7.540;2023-08-24T12:27:52;29.60;98.60
15455;DHT22;21057;51.024;7.540;2023-08-24T12:30:20;29.70;97.40
15455;DHT22;21057;51.024;7.540;2023-08-24T12:32:47;29.90;96.70
15455;DHT22;21057;51.024;7.540;2023-08-24T12:35:16;30.00;97.70
15455;DHT22;21057;51.024;7.540;2023-08-24T12:37:43;30.10;94.90
15455;DHT22;21057;51.024;7.540;2023-08-24T12:40:10;30.00;96.70
15455;DHT22;21057;51.024;7.540;2023-08-24T12:42:38;29.70;94.90
15455;DHT22;21057;51.024;7.540;2023-08-24T12:45:06;29.50;96.30
15455;DHT22;21057;51.024;7.540;2023-08-24T12:47:33;29.50;97.70
15455;DHT22;21057;51.024;7.540;2023-08-24T12:50:05;29.60;97.40
15455;DHT22;21057;51.024;7.540;2023-08-24T12:52:31;29.50;96.90
15455;DHT22;21057;51.024;7.540;2023-08-24T12:54:59;29.30;97.20
15455;DHT22;21057;51.024;7.540;2023-08-24T12:57:26;29.20;98.60
15455;DHT22;21057;51.024;7.540;2023-08-24T12:59:54;29.00;98.40
15455;DHT22;21057;51.024;7.540;2023-08-24T13:02:21;29.00;98.20
15455;DHT22;21057;51.024;7.540;2023-08-24T13:04:48;28.70;96.70
15455;DHT22;21057;51.024;7.540;2023-08-24T13:07:14;28.40;99.50
15455;DHT22;21057;51.024;7.540;2023-08-24T13:09:41;28.20;97.70
15455;DHT22;21057;51.024;7.540;2023-08-24T13:12:08;28.20;99.20
15455;DHT22;21057;51.024;7.540;2023-08-24T13:14:35;28.00;98.70
15455;DHT22;21057;51.024;7.540;2023-08-24T13:17:03;27.90;99.60
15455;DHT22;21057;51.024;7.540;2023-08-24T13:19:30;27.80;99.50
15455;DHT22;21057;51.024;7.540;2023-08-24T13:21:57;27.60;99.90
15455;DHT22;21057;51.024;7.540;2023-08-24T13:24:24;27.70;99.90
15455;DHT22;21057;51.024;7.540;2023-08-24T13:26:50;27.50;99.90
15455;DHT22;21057;51.024;7.540;2023-08-24T13:29:17;27.30;99.90
15455;DHT22;21057;51.024;7.540;2023-08-24T13:31:44;27.20;99.90
15455;DHT22;21057;51.024;7.540;2023-08-24T13:34:12;27.20;99.90
15455;DHT22;21057;51.024;7.540;2023-08-24T13:36:40;27.00;99.90
15455;DHT22;21057;51.024;7.540;2023-08-24T13:39:06;27.20;99.90
15455;DHT22;21057;51.024;7.540;2023-08-24T13:41:33;27.10;99.90
15455;DHT22;21057;51.024;7.540;2023-08-24T13:44:00;26.80;99.90
15455;DHT22;21057;51.024;7.540;2023-08-24T13:46:28;27.00;99.90
15455;DHT22;21057;51.024;7.540;2023-08-24T13:48:54;27.10;99.90
15455;DHT22;21057;51.024;7.540;2023-08-24T13:51:23;27.00;99.90
15455;DHT22;21057;51.024;7.540;2023-08-24T13:53:49;27.00;99.90
15455;DHT22;21057;51.024;7.540;2023-08-24T13:56:16;27.10;99.90
15455;DHT22;21057;51.024;7.540;2023-08-24T13:58:43;27.20;99.90
15455;DHT22;21057;51.024;7.540;2023-08-24T14:01:10;27.20;99.90
15455;DHT22;21057;51.024;7.540;2023-08-24T14:03:38;27.20;99.90
15455;DHT22;21057;51.024;7.540;2023-08-24T14:06:05;27.20;99.90
15455;DHT22;21057;51.024;7.540;2023-08-24T14:08:33;27.20;99.90
15455;DHT22;21057;51.024;7.540;2023-08-24T14:11:00;27.20;99.90
15455;DHT22;21057;51.024;7.540;2023-08-24T14:13:27;27.30;99.90
15455;DHT22;21057;51.024;7.540;2023-08-24T14:15:54;27.10;99.90
15455;DHT22;21057;51.024;7.540;2023-08-24T14:18:22;27.00;99.90
15455;DHT22;21057;51.024;7.540;2023-08-24T14:20:49;26.90;99.90
15455;DHT22;21057;51.024;7.540;2023-08-24T14:23:16;26.80;99.90
15455;DHT22;21057;51.024;7.540;2023-08-24T14:25:46;26.70;99.90
15455;DHT22;21057;51.024;7.540;2023-08-24T14:28:12;26.70;99.90
15455;DHT22;21057;51.024;7.540;2023-08-24T14:30:39;26.90;99.90
15455;DHT22;21057;51.024;7.540;2023-08-24T14:33:06;26.90;99.90
15455;DHT22;21057;51.024;7.540;2023-08-24T14:35:33;26.90;99.90
15455;DHT22;21057;51.024;7.540;2023-08-24T14:38:00;26.70;99.90
15455;DHT22;21057;51.024;7.540;2023-08-24T14:40:27;26.60;99.90
15455;DHT22;21057;51.024;7.540;2023-08-24T14:42:55;26.50;99.90
15455;DHT22;21057;51.024;7.540;2023-08-24T14:45:22;26.60;99.90
15455;DHT22;21057;51.024;7.540;2023-08-24T14:47:49;26.30;99.90
15455;DHT22;21057;51.024;7.540;2023-08-24T14:50:16;26.40;99.90
15455;DHT22;21057;51.024;7.540;2023-08-24T14:52:43;26.50;99.90
15455;DHT22;21057;51.024;7.540;2023-08-24T14:55:09;26.50;99.90
15455;DHT22;21057;51.024;7.540;2023-08-24T14:57:38;26.20;99.90
15455;DHT22;21057;51.024;7.540;2023-08-24T15:00:07;26.10;99.90
15455;DHT22;21057;51.024;7.540;2023-08-24T15:02:35;26.00;99.90
15455;DHT22;21057;51.024;7.540;2023-08-24T15:05:03;25.80;99.90
15455;DHT22;21057;51.024;7.540;2023-08-24T15:07:30;25.80;99.90
15455;DHT22;21057;51.024;7.540;2023-08-24T15:09:57;25.70;99.90
15455;DHT22;21057;51.024;7.540;2023-08-24T15:12:24;25.70;99.90
15455;DHT22;21057;51.024;7.540;2023-08-24T15:14:58;25.60;99.90
15455;DHT22;21057;51.024;7.540;2023-08-24T15:17:29;25.60;99.90
15455;DHT22;21057;51.024;7.540;2023-08-24T15:19:56;25.60;99.90
15455;DHT22;21057;51.024;7.540;2023-08-24T15:22:22;25.60;99.90
15455;DHT22;21057;51.024;7.540;2023-08-24T15:24:49;25.60;99.90
15455;DHT22;21057;51.024;7.540;2023-08-24T15:27:16;25.50;99.90
15455;DHT22;21057;51.024;7.540;2023-08-24T15:29:44;25.20;99.90
15455;DHT22;21057;51.024;7.540;2023-08-24T15:32:11;25.00;99.90
15455;DHT22;21057;51.024;7.540;2023-08-24T15:34:39;25.00;99.90
15455;DHT22;21057;51.024;7.540;2023-08-24T15:37:06;24.70;99.90
15455;DHT22;21057;51.024;7.540;2023-08-24T15:39:35;24.60;99.90
15455;DHT22;21057;51.024;7.540;2023-08-24T15:42:03;24.70;99.90
15455;DHT22;21057;51.024;7.540;2023-08-24T15:44:30;24.40;99.90
15455;DHT22;21057;51.024;7.540;2023-08-24T15:46:57;24.30;99.90